Time;durP1;ratioP1;P1;durP2;ratioP2;P2;SDS_P1;SDS_P2;PMS_P1;PMS_P2;Temp;Humidity;BMP_temperature;BMP_pressure;BME280_temperature;BME280_humidity;BME280_pressure;Samples;Min_cycle;Max_cycle;Signal;HPM_P1;HPM_P2
2021/12/20 00:00:27;;;;;;;25.13;15.10;;;;;;;1.20;100.00;96978.78;5008991;28;105239;-60
2021/12/20 00:03:00;;;;;;;23.70;14.50;;;;;;;1.27;100.00;96971.84;5007981;28;101695;-60
2021/12/20 00:05:28;;;;;;;25.83;14.87;;;;;;;1.34;100.00;96981.44;5010859;28;102559;-60
2021/12/20 00:07:55;;;;;;;26.57;15.53;;;;;;;1.43;100.00;96979.53;5008714;28;105491;-60
2021/12/20 00:10:22;;;;;;;22.17;14.37;;;;;;;1.51;100.00;96974.22;5009458;28;101869;-60
2021/12/20 00:12:50;;;;;;;22.73;13.63;;;;;;;1.33;100.00;96963.25;5012418;28;104100;-60
2021/12/20 00:15:19;;;;;;;24.97;13.90;;;;;;;1.36;100.00;96955.03;5011061;28;101863;-60
2021/12/20 00:17:47;;;;;;;22.03;14.00;;;;;;;1.42;100.00;96965.63;5010731;28;102326;-60
2021/12/20 00:20:15;;;;;;;22.67;13.77;;;;;;;1.49;100.00;96960.47;5007943;28;105583;-60
2021/12/20 00:22:42;;;;;;;26.27;15.23;;;;;;;1.49;100.00;96969.13;5008824;28;101906;-60
2021/12/20 00:25:10;;;;;;;23.30;15.00;;;;;;;1.42;100.00;96952.50;5009249;28;105352;-60
2021/12/20 00:27:37;;;;;;;23.10;13.47;;;;;;;1.43;100.00;96958.59;5008729;28;105754;-60
2021/12/20 00:30:04;;;;;;;22.67;14.20;;;;;;;1.50;100.00;96959.47;5009590;28;101912;-60
2021/12/20 00:32:33;;;;;;;21.80;14.13;;;;;;;1.53;100.00;96965.16;5011498;28;105531;-60
2021/12/20 00:35:00;;;;;;;21.27;13.60;;;;;;;1.47;100.00;96955.41;5008931;28;101815;-60
2021/12/20 00:40:22;;;;;;;21.10;13.17;;;;;;;1.44;100.00;96957.59;5008593;28;105611;-60
2021/12/20 00:42:49;;;;;;;18.70;12.27;;;;;;;1.48;100.00;96958.84;5008776;28;102022;-60
2021/12/20 00:45:17;;;;;;;20.40;13.13;;;;;;;1.42;100.00;96952.50;5008879;28;105504;-60
2021/12/20 00:47:45;;;;;;;21.00;12.83;;;;;;;1.41;100.00;96942.22;5008476;28;105079;-60
2021/12/20 00:50:14;;;;;;;23.37;14.07;;;;;;;1.42;100.00;96941.25;5008601;28;102265;-60
2021/12/20 00:52:42;;;;;;;21.27;13.27;;;;;;;1.45;100.00;96944.31;5008612;28;104958;-60
2021/12/20 00:55:09;;;;;;;21.00;12.87;;;;;;;1.43;100.00;96953.34;5011463;28;105033;-60
2021/12/20 00:57:36;;;;;;;22.03;13.27;;;;;;;1.42;100.00;96946.47;5008900;28;105162;-60
2021/12/20 01:00:05;;;;;;;20.70;13.77;;;;;;;1.38;100.00;96939.97;5008140;28;105152;-60
2021/12/20 01:02:32;;;;;;;19.27;12.50;;;;;;;1.39;100.00;96942.41;5008950;28;102528;-60
2021/12/20 01:05:00;;;;;;;17.77;11.33;;;;;;;1.39;100.00;96941.59;5008404;28;105089;-60
2021/12/20 01:07:28;;;;;;;21.07;13.73;;;;;;;1.43;100.00;96935.78;5007752;28;105032;-60
2021/12/20 01:09:59;;;;;;;20.87;12.20;;;;;;;1.42;100.00;96936.00;5008489;28;101941;-60
2021/12/20 01:12:31;;;;;;;20.57;12.00;;;;;;;1.42;100.00;96928.13;5008692;28;105078;-60
2021/12/20 01:15:00;;;;;;;21.47;12.43;;;;;;;1.42;100.00;96925.50;5007779;28;104960;-60
2021/12/20 01:17:27;;;;;;;18.60;12.00;;;;;;;1.39;100.00;96936.34;5011915;28;102310;-60
2021/12/20 01:19:54;;;;;;;18.67;12.40;;;;;;;1.40;100.00;96938.78;5007865;28;105009;-60
2021/12/20 01:22:23;;;;;;;19.20;12.30;;;;;;;1.40;100.00;96936.16;5008153;28;101892;-60
2021/12/20 01:24:50;;;;;;;18.07;11.67;;;;;;;1.46;100.00;96932.81;5009687;28;102399;-60
2021/12/20 01:27:17;;;;;;;19.50;11.50;;;;;;;1.51;100.00;96930.47;5007785;28;105653;-60
2021/12/20 01:29:44;;;;;;;17.40;11.20;;;;;;;1.50;100.00;96934.09;5008030;28;101865;-60
2021/12/20 01:32:12;;;;;;;18.80;12.07;;;;;;;1.58;100.00;96935.81;5008865;28;102588;-60
2021/12/20 01:34:38;;;;;;;18.13;12.03;;;;;;;1.63;100.00;96923.78;5007130;28;105521;-60
2021/12/20 01:37:06;;;;;;;18.70;11.77;;;;;;;1.58;100.00;96930.56;5007414;28;102156;-60
2021/12/20 01:39:35;;;;;;;17.50;11.37;;;;;;;1.60;100.00;96939.06;5011787;28;102507;-60
2021/12/20 01:42:04;;;;;;;16.67;11.33;;;;;;;1.67;100.00;96942.56;5007976;28;101914;-60
2021/12/20 01:44:32;;;;;;;16.87;11.17;;;;;;;1.69;100.00;96938.78;5008162;28;105033;-60
2021/12/20 01:47:01;;;;;;;15.63;10.60;;;;;;;1.70;100.00;96926.50;5007516;28;105254;-60
2021/12/20 01:49:30;;;;;;;17.30;10.60;;;;;;;1.75;100.00;96926.75;5007633;28;101866;-60
2021/12/20 01:52:04;;;;;;;14.93;10.37;;;;;;;1.71;100.00;96933.34;5009157;28;102434;-60
2021/12/20 01:54:32;;;;;;;15.53;10.70;;;;;;;1.70;100.00;96929.91;5007233;28;105530;-60
2021/12/20 01:57:01;;;;;;;15.13;10.83;;;;;;;1.69;100.00;96927.50;5007591;28;102222;-60
2021/12/20 01:59:28;;;;;;;15.73;10.97;;;;;;;1.69;100.00;96930.13;5007782;28;104833;-60
2021/12/20 02:01:56;;;;;;;16.03;10.43;;;;;;;1.73;100.00;96928.75;5010667;28;104063;-60
2021/12/20 02:04:23;;;;;;;18.20;10.63;;;;;;;1.74;100.00;96925.13;5007832;28;103627;-60
2021/12/20 02:06:51;;;;;;;17.00;11.07;;;;;;;1.75;100.00;96924.13;5007391;28;105466;-60
2021/12/20 02:09:20;;;;;;;17.57;10.77;;;;;;;1.86;100.00;96923.69;5009433;28;101809;-60
2021/12/20 02:11:49;;;;;;;18.63;11.43;;;;;;;1.88;100.00;96919.06;5007762;28;103632;-60
2021/12/20 02:14:20;;;;;;;18.90;11.30;;;;;;;1.95;100.00;96909.44;5007163;28;103749;-60
2021/12/20 02:16:48;;;;;;;16.57;10.80;;;;;;;1.92;100.00;96917.69;5008943;28;101669;-60
2021/12/20 02:19:17;;;;;;;17.03;10.47;;;;;;;1.95;100.00;96917.31;5008963;28;102400;-60
2021/12/20 02:21:47;;;;;;;15.77;10.50;;;;;;;1.94;100.00;96910.44;5008394;28;102400;-60
2021/12/20 02:24:15;;;;;;;17.37;10.43;;;;;;;1.84;100.00;96904.66;4994119;28;101714;-60
2021/12/20 02:26:41;;;;;;;17.73;11.23;;;;;;;1.90;100.00;96901.31;5007055;28;105863;-60
2021/12/20 02:29:09;;;;;;;15.40;10.23;;;;;;;1.94;100.00;96902.56;5007278;28;101889;-60
2021/12/20 02:37:27;;;;;;;16.27;10.57;;;;;;;1.93;100.00;96911.44;5007176;28;101850;-60
2021/12/20 02:39:55;;;;;;;16.83;11.23;;;;;;;2.01;100.00;96914.78;5007398;28;105104;-60
2021/12/20 02:42:28;;;;;;;18.97;11.03;;;;;;;2.00;100.00;96905.28;5007380;28;105188;-60
2021/12/20 02:45:08;;;;;;;17.17;10.87;;;;;;;2.02;100.00;96903.28;5015950;28;101698;-60
2021/12/20 02:47:38;;;;;;;16.00;10.57;;;;;;;2.05;100.00;96897.69;5010253;28;105609;-60
2021/12/20 02:50:06;;;;;;;14.17;9.87;;;;;;;2.06;100.00;96891.44;5011113;28;101773;-60
2021/12/20 02:52:35;;;;;;;14.50;9.83;;;;;;;2.01;100.00;96895.59;5011544;28;105122;-60
2021/12/20 02:55:01;;;;;;;14.37;9.57;;;;;;;2.07;100.00;96890.44;5011042;28;105301;-60
2021/12/20 02:57:29;;;;;;;13.37;9.30;;;;;;;2.10;100.00;96908.44;5011525;28;101792;-60
2021/12/20 02:59:56;;;;;;;12.47;8.53;;;;;;;2.02;100.00;96905.91;5011517;28;104820;-60
2021/12/20 03:02:23;;;;;;;14.13;8.77;;;;;;;2.11;100.00;96898.72;5010837;28;105454;-60
2021/12/20 03:04:51;;;;;;;12.37;8.67;;;;;;;2.03;100.00;96891.00;5011535;28;101895;-60
2021/12/20 03:07:23;;;;;;;12.53;8.70;;;;;;;2.01;100.00;96890.34;5014330;28;105142;-60
2021/12/20 03:09:57;;;;;;;12.80;9.13;;;;;;;2.04;100.00;96889.97;5011488;28;101833;-60
2021/12/20 03:12:27;;;;;;;13.90;8.90;;;;;;;2.09;100.00;96892.88;5012407;28;105106;-60
2021/12/20 03:15:00;;;;;;;12.93;9.07;;;;;;;2.19;100.00;96891.56;5011677;28;105337;-60
2021/12/20 03:17:27;;;;;;;14.63;9.33;;;;;;;2.19;100.00;96890.75;5011242;28;101862;-60
2021/12/20 03:19:54;;;;;;;11.73;8.63;;;;;;;2.21;100.00;96886.13;5011136;28;105250;-60
2021/12/20 03:22:22;;;;;;;12.47;8.80;;;;;;;2.18;100.00;96889.16;5010550;28;105185;-60
2021/12/20 03:24:49;;;;;;;12.57;9.03;;;;;;;2.19;100.00;96888.13;5011134;28;102080;-60
2021/12/20 03:27:18;;;;;;;12.90;9.23;;;;;;;2.18;100.00;96887.31;5011197;28;104233;-60
2021/12/20 03:29:45;;;;;;;12.23;8.93;;;;;;;2.20;100.00;96884.50;5013883;28;104173;-60
2021/12/20 03:32:12;;;;;;;12.33;8.70;;;;;;;2.17;100.00;96887.50;5011605;28;102379;-60
2021/12/20 03:34:39;;;;;;;13.03;9.10;;;;;;;2.27;100.00;96885.38;5010903;28;105030;-60
2021/12/20 03:37:06;;;;;;;12.67;9.10;;;;;;;2.21;100.00;96892.19;5012135;28;102108;-60
2021/12/20 03:39:34;;;;;;;14.17;8.63;;;;;;;2.19;100.00;96899.44;5011303;28;105752;-60
2021/12/20 03:42:01;;;;;;;12.33;9.10;;;;;;;2.19;100.00;96902.03;5011491;28;105267;-60
2021/12/20 03:44:32;;;;;;;13.47;9.70;;;;;;;2.32;100.00;96898.75;5010698;28;102055;-60
2021/12/20 03:47:00;;;;;;;11.97;9.00;;;;;;;2.36;100.00;96894.75;5010959;28;105049;-60
2021/12/20 03:49:27;;;;;;;11.33;8.53;;;;;;;2.39;100.00;96894.38;5010347;28;104942;-60
2021/12/20 03:51:53;;;;;;;13.93;9.53;;;;;;;2.37;100.00;96891.13;5014090;28;101956;-60
2021/12/20 03:54:20;;;;;;;12.90;9.17;;;;;;;2.41;100.00;96897.66;5008502;28;105059;-60
2021/12/20 03:56:47;;;;;;;12.33;8.93;;;;;;;2.41;100.00;96902.91;5010791;28;101883;-60
2021/12/20 03:59:14;;;;;;;13.13;9.20;;;;;;;2.34;100.00;96896.75;5010593;28;104968;-60
2021/12/20 04:01:43;;;;;;;13.47;8.93;;;;;;;2.32;100.00;96899.59;5009803;28;106518;-60
2021/12/20 04:04:10;;;;;;;31.47;17.87;;;;;;;2.32;100.00;96898.75;5010618;28;101965;-60
2021/12/20 04:06:37;;;;;;;13.40;9.07;;;;;;;2.35;100.00;96895.78;5009184;28;105528;-60
2021/12/20 04:09:05;;;;;;;14.50;9.47;;;;;;;2.31;100.00;96897.97;5010054;28;104393;-60
2021/12/20 04:11:33;;;;;;;12.00;9.10;;;;;;;2.38;100.00;96898.00;5010466;28;101925;-60
2021/12/20 04:13:59;;;;;;;12.30;9.00;;;;;;;2.31;100.00;96892.72;5013079;28;104843;-60
2021/12/20 04:16:26;;;;;;;10.97;8.40;;;;;;;2.35;100.00;96887.91;5010194;28;101885;-60
2021/12/20 04:18:55;;;;;;;14.27;10.00;;;;;;;2.35;100.00;96888.69;5010452;28;105244;-60
2021/12/20 04:21:23;;;;;;;12.43;8.83;;;;;;;2.41;100.00;96890.56;5008908;28;104617;-60
2021/12/20 04:23:50;;;;;;;12.87;8.90;;;;;;;2.41;100.00;96887.94;5010249;28;102289;-60
2021/12/20 04:26:17;;;;;;;11.17;8.33;;;;;;;2.43;100.00;96888.59;5010276;28;104957;-60
2021/12/20 04:28:44;;;;;;;11.40;8.50;;;;;;;2.47;100.00;96902.13;5009493;28;105468;-60
2021/12/20 04:31:11;;;;;;;11.70;8.60;;;;;;;2.47;100.00;96908.19;5009528;28;102186;-60
2021/12/20 04:33:38;;;;;;;13.00;9.17;;;;;;;2.44;100.00;96908.56;5010048;28;104055;-60
2021/12/20 04:36:06;;;;;;;13.10;9.50;;;;;;;2.34;100.00;96900.19;5012793;28;102023;-60
2021/12/20 04:38:34;;;;;;;11.10;8.40;;;;;;;2.35;100.00;96898.41;5010204;28;105152;-60
2021/12/20 04:41:01;;;;;;;15.03;10.00;;;;;;;2.29;100.00;96907.03;5009151;28;104182;-60
2021/12/20 04:43:28;;;;;;;12.50;9.10;;;;;;;2.28;100.00;96915.84;5008790;28;101920;-60
2021/12/20 04:45:55;;;;;;;11.90;8.53;;;;;;;2.33;100.00;96910.88;5010037;28;104817;-60
2021/12/20 04:48:22;;;;;;;12.77;8.97;;;;;;;2.36;100.00;96907.88;5009308;28;105320;-60
2021/12/20 04:50:50;;;;;;;11.83;8.20;;;;;;;2.38;100.00;96913.75;5009808;28;102033;-60
2021/12/20 04:53:18;;;;;;;12.47;8.53;;;;;;;2.33;100.00;96914.31;5009675;28;105512;-60
2021/12/20 04:55:45;;;;;;;12.90;9.00;;;;;;;2.34;100.00;96912.50;5012602;28;104227;-60
2021/12/20 04:58:12;;;;;;;12.00;8.70;;;;;;;2.32;100.00;96919.75;5009672;28;105145;-60
2021/12/20 05:00:40;;;;;;;11.00;8.60;;;;;;;2.29;100.00;96925.38;5008967;28;104977;-60
2021/12/20 05:03:08;;;;;;;13.10;9.30;;;;;;;2.16;100.00;96926.03;5009697;28;101861;-60
2021/12/20 05:05:37;;;;;;;10.33;8.07;;;;;;;2.21;100.00;96923.69;5009277;28;105506;-60
2021/12/20 05:08:05;;;;;;;11.00;8.37;;;;;;;2.21;100.00;96928.09;5008754;28;105497;-60
2021/12/20 05:10:37;;;;;;;12.47;8.50;;;;;;;2.13;100.00;96931.66;5009222;28;101884;-60
2021/12/20 05:13:07;;;;;;;11.97;8.33;;;;;;;2.17;100.00;96937.34;5009506;28;104959;-60
2021/12/20 05:15:35;;;;;;;11.17;8.10;;;;;;;2.19;100.00;96944.03;5008829;28;105453;-60
2021/12/20 05:18:04;;;;;;;13.07;8.80;;;;;;;2.15;100.00;96939.34;5012658;28;101871;-60
2021/12/20 05:20:31;;;;;;;12.80;8.90;;;;;;;2.18;100.00;96954.72;5008919;28;103746;-60
2021/12/20 05:22:59;;;;;;;11.70;8.27;;;;;;;2.31;100.00;96947.00;5009183;28;101862;-60
2021/12/20 05:25:27;;;;;;;12.57;8.73;;;;;;;2.32;100.00;96946.81;5009259;28;104142;-60
2021/12/20 05:27:56;;;;;;;13.50;9.17;;;;;;;2.31;100.00;96939.94;5008680;28;105232;-60
2021/12/20 05:30:23;;;;;;;12.93;9.10;;;;;;;2.31;100.00;96947.00;5009065;28;101967;-60
2021/12/20 05:32:50;;;;;;;12.73;9.13;;;;;;;2.30;100.00;96943.53;5009312;28;105319;-60
2021/12/20 05:35:19;;;;;;;11.80;8.73;;;;;;;2.32;100.00;96957.31;5008452;28;105049;-60
2021/12/20 05:37:47;;;;;;;11.90;8.77;;;;;;;2.31;100.00;96957.50;5010570;28;101829;-60
2021/12/20 05:40:15;;;;;;;12.63;8.73;;;;;;;2.32;100.00;96956.50;5011899;28;105430;-60
2021/12/20 05:42:43;;;;;;;11.63;9.13;;;;;;;2.34;100.00;96954.47;5009198;28;102160;-60
2021/12/20 05:45:13;;;;;;;12.17;9.33;;;;;;;2.34;100.00;96960.56;5009965;28;104989;-60
2021/12/20 05:47:40;;;;;;;11.73;8.87;;;;;;;2.30;100.00;96955.88;5008602;28;105165;-60
2021/12/20 05:50:09;;;;;;;11.90;8.97;;;;;;;2.26;100.00;96954.59;5010427;28;102395;-60
2021/12/20 05:52:37;;;;;;;13.97;9.57;;;;;;;2.22;100.00;96958.59;5008938;28;103575;-60
2021/12/20 05:55:05;;;;;;;14.60;9.93;;;;;;;2.23;100.00;96954.97;5007882;28;106832;-60
2021/12/20 05:57:33;;;;;;;11.97;8.90;;;;;;;2.20;100.00;96948.28;5008615;28;102128;-60
2021/12/20 06:00:01;;;;;;;11.57;8.73;;;;;;;2.09;100.00;96955.81;5010141;28;102496;-60
2021/12/20 06:02:30;;;;;;;13.43;9.13;;;;;;;2.13;100.00;96963.13;5011726;28;105319;-60
2021/12/20 06:04:57;;;;;;;15.10;10.10;;;;;;;2.17;100.00;96963.56;5008475;28;105708;-60
2021/12/20 06:07:24;;;;;;;13.93;10.13;;;;;;;2.19;100.00;96972.88;5007076;28;105003;-60
2021/12/20 06:09:50;;;;;;;14.13;10.27;;;;;;;2.23;100.00;96974.16;5007753;28;102236;-60
2021/12/20 06:12:18;;;;;;;15.07;9.97;;;;;;;2.28;100.00;96978.84;5007450;28;105233;-60
2021/12/20 06:14:46;;;;;;;13.80;9.43;;;;;;;2.24;100.00;96969.72;5007408;28;104536;-60
2021/12/20 06:17:13;;;;;;;13.00;9.50;;;;;;;2.23;100.00;96973.31;5009012;28;101932;-60
2021/12/20 06:19:42;;;;;;;12.57;9.23;;;;;;;2.20;100.00;96973.72;5012203;28;105158;-60
2021/12/20 06:22:10;;;;;;;11.23;8.70;;;;;;;2.18;100.00;96975.72;5011389;28;106483;-60
2021/12/20 06:24:38;;;;;;;13.33;8.70;;;;;;;2.12;100.00;96974.63;5016977;28;101788;-60
2021/12/20 06:27:06;;;;;;;12.70;9.67;;;;;;;2.08;100.00;96977.81;5011421;28;105620;-60
2021/12/20 06:29:33;;;;;;;14.13;9.40;;;;;;;2.08;100.00;96975.19;5011863;28;101979;-60
2021/12/20 06:31:59;;;;;;;14.10;10.00;;;;;;;2.21;100.00;96975.34;5011178;28;103719;-60
2021/12/20 06:34:27;;;;;;;13.10;9.13;;;;;;;2.23;100.00;96979.41;5010121;28;105485;-60
2021/12/20 06:36:55;;;;;;;12.73;9.53;;;;;;;2.29;100.00;96988.34;5011683;28;102058;-60
2021/12/20 06:39:23;;;;;;;12.70;9.10;;;;;;;2.28;100.00;96982.28;5011787;28;105255;-60
2021/12/20 06:41:50;;;;;;;14.20;9.50;;;;;;;2.20;100.00;96986.84;5010968;28;104444;-60
2021/12/20 06:44:17;;;;;;;16.13;9.50;;;;;;;2.29;100.00;96983.91;5016998;28;102111;-60
2021/12/20 06:46:44;;;;;;;11.90;8.97;;;;;;;2.22;100.00;96987.44;5011218;28;105085;-60
2021/12/20 06:49:12;;;;;;;14.63;9.20;;;;;;;2.24;100.00;96981.03;5011819;28;101841;-60
2021/12/20 06:51:42;;;;;;;12.70;9.30;;;;;;;2.19;100.00;96983.38;5011710;28;104908;-60
2021/12/20 06:54:18;;;;;;;13.77;9.57;;;;;;;2.09;100.00;96989.94;5010795;28;103743;-60
2021/12/20 06:56:45;;;;;;;12.17;9.07;;;;;;;2.08;100.00;96983.06;5011690;28;102124;-60
2021/12/20 06:59:13;;;;;;;13.30;9.07;;;;;;;1.98;100.00;96985.16;5012907;28;102597;-60
2021/12/20 07:01:41;;;;;;;11.47;8.77;;;;;;;1.98;100.00;96985.16;5012476;28;102650;-60
2021/12/20 07:04:08;;;;;;;13.97;9.30;;;;;;;1.99;100.00;96997.25;5011488;28;101957;-60
2021/12/20 07:06:35;;;;;;;13.60;9.07;;;;;;;2.02;100.00;96994.28;5014070;28;105145;-60
2021/12/20 07:09:02;;;;;;;14.43;8.93;;;;;;;2.06;100.00;96996.34;5011315;28;101750;-60
2021/12/20 07:11:30;;;;;;;12.93;9.20;;;;;;;2.12;100.00;96998.25;5011371;28;105171;-60
2021/12/20 07:13:57;;;;;;;15.40;10.17;;;;;;;2.22;100.00;96993.53;5010646;28;105187;-60
2021/12/20 07:16:25;;;;;;;14.20;9.47;;;;;;;2.24;100.00;96988.09;5010363;28;102066;-60
2021/12/20 07:18:52;;;;;;;13.40;9.37;;;;;;;2.30;100.00;96989.97;5011513;28;105330;-60
2021/12/20 07:21:19;;;;;;;11.57;8.63;;;;;;;2.30;100.00;97000.47;5010400;28;105290;-60
2021/12/20 07:23:47;;;;;;;14.30;9.63;;;;;;;2.35;100.00;97003.38;5011038;28;101899;-60
2021/12/20 07:26:14;;;;;;;14.70;10.10;;;;;;;2.39;100.00;97005.44;5011279;28;105100;-60
2021/12/20 07:28:44;;;;;;;15.47;10.50;;;;;;;2.35;100.00;97003.38;5014292;28;102646;-60
2021/12/20 07:31:11;;;;;;;12.27;9.03;;;;;;;2.34;100.00;97006.97;5010799;28;102897;-60
2021/12/20 07:33:38;;;;;;;14.07;9.97;;;;;;;2.33;100.00;97000.09;5009963;28;105846;-60
2021/12/20 07:36:06;;;;;;;13.20;9.73;;;;;;;2.31;100.00;97004.72;5009681;28;101883;-60
2021/12/20 07:38:34;;;;;;;13.30;9.33;;;;;;;2.31;100.00;96997.69;5010814;28;105049;-60
2021/12/20 07:41:02;;;;;;;12.67;9.20;;;;;;;2.29;100.00;97002.28;5010290;28;105539;-60
2021/12/20 07:43:29;;;;;;;12.63;8.77;;;;;;;2.31;100.00;97002.09;5010487;28;101955;-60
2021/12/20 07:45:58;;;;;;;15.17;10.47;;;;;;;2.33;100.00;97011.41;5010811;28;105025;-60
2021/12/20 07:48:25;;;;;;;12.90;10.23;;;;;;;2.44;100.00;97008.31;5009145;28;105426;-58
2021/12/20 07:50:52;;;;;;;13.17;9.60;;;;;;;2.35;100.00;97004.16;5013144;28;101925;-60
2021/12/20 07:53:20;;;;;;;13.33;9.30;;;;;;;2.50;100.00;97004.13;5010154;28;105046;-60
2021/12/20 07:55:48;;;;;;;14.53;10.17;;;;;;;2.62;100.00;97011.34;5010419;28;101918;-60
2021/12/20 07:58:15;;;;;;;15.07;10.30;;;;;;;2.44;100.00;97015.38;5009725;28;104837;-60
2021/12/20 08:00:41;;;;;;;15.00;10.80;;;;;;;2.55;100.00;97009.63;5009174;28;105621;-60
2021/12/20 08:03:11;;;;;;;17.50;11.70;;;;;;;2.49;100.00;97018.25;5009754;28;102034;-60
2021/12/20 08:05:38;;;;;;;16.80;11.07;;;;;;;2.46;100.00;97013.38;5009439;28;104050;-60
2021/12/20 08:08:06;;;;;;;18.70;11.90;;;;;;;2.49;100.00;97013.81;5008225;28;105412;-60
2021/12/20 08:10:33;;;;;;;15.30;10.60;;;;;;;2.60;100.00;97015.97;5009568;28;101985;-60
2021/12/20 08:13:01;;;;;;;17.43;11.20;;;;;;;2.63;100.00;97017.41;5012145;28;105511;-60
2021/12/20 08:15:28;;;;;;;19.53;13.27;;;;;;;2.69;100.00;97019.28;5009138;28;101773;-60
2021/12/20 08:17:56;;;;;;;19.23;13.17;;;;;;;2.63;100.00;97022.66;5009182;28;105464;-60
2021/12/20 08:20:26;;;;;;;18.23;12.00;;;;;;;2.70;100.00;97013.03;5009929;28;104236;-60
2021/12/20 08:22:53;;;;;;;15.17;10.20;;;;;;;2.55;100.00;97010.47;5009046;28;102053;-60
2021/12/20 08:25:21;;;;;;;13.93;10.07;;;;;;;2.68;100.00;97022.91;5009041;28;105323;-60
2021/12/20 08:27:51;;;;;;;14.77;10.80;;;;;;;2.66;100.00;97027.53;5008695;28;103986;-60
2021/12/20 08:30:21;;;;;;;15.73;10.50;;;;;;;2.76;100.00;97028.03;5009104;28;102240;-60
2021/12/20 08:32:48;;;;;;;14.60;10.30;;;;;;;2.75;100.00;97029.03;5009081;28;105167;-60
2021/12/20 08:35:15;;;;;;;15.40;10.40;;;;;;;2.83;100.00;97031.53;5011866;28;105200;-60
2021/12/20 08:37:44;;;;;;;15.33;11.13;;;;;;;2.82;100.00;97027.28;5009061;28;106660;-60
2021/12/20 08:40:14;;;;;;;16.07;10.33;;;;;;;2.86;100.00;97029.38;5007652;28;105465;-60
2021/12/20 08:42:42;;;;;;;17.87;11.57;;;;;;;2.85;100.00;97027.72;5010047;28;101805;-60
2021/12/20 08:45:11;;;;;;;15.23;11.43;;;;;;;2.88;100.00;97019.50;5010469;28;102415;-60
2021/12/20 08:47:38;;;;;;;16.13;10.13;;;;;;;2.71;100.00;97030.41;5008273;28;105168;-60
2021/12/20 08:50:11;;;;;;;18.60;12.40;;;;;;;2.68;100.00;97031.59;5010142;28;101833;-60
2021/12/20 08:52:38;;;;;;;16.97;11.97;;;;;;;2.72;100.00;97034.66;5010143;28;102367;-60
2021/12/20 08:55:09;;;;;;;16.77;12.60;;;;;;;2.69;100.00;97037.66;5011767;28;104969;-60
2021/12/20 08:57:36;;;;;;;15.57;11.13;;;;;;;2.81;100.00;97044.88;5009931;28;102818;-60
2021/12/20 09:00:06;;;;;;;14.03;10.50;;;;;;;2.82;100.00;97037.78;5008165;28;105057;-60
2021/12/20 09:02:32;;;;;;;14.43;10.50;;;;;;;2.71;100.00;97043.53;5008561;28;101934;-60
2021/12/20 09:04:59;;;;;;;14.03;9.93;;;;;;;2.78;100.00;97047.06;5008322;28;106120;-60
2021/12/20 09:07:27;;;;;;;18.10;11.00;;;;;;;2.92;100.00;97043.56;5008803;28;105011;-60
2021/12/20 09:09:54;;;;;;;14.57;10.40;;;;;;;2.81;100.00;97046.69;5009963;28;102314;-60
2021/12/20 09:12:22;;;;;;;18.53;10.70;;;;;;;2.81;100.00;97049.31;5008803;28;104644;-60
2021/12/20 09:14:50;;;;;;;16.03;10.17;;;;;;;2.96;100.00;97047.44;5008002;28;103813;-60
2021/12/20 09:17:18;;;;;;;14.93;10.67;;;;;;;2.98;100.00;97042.81;5009525;28;102180;-60
2021/12/20 09:19:45;;;;;;;18.23;12.17;;;;;;;2.96;100.00;97050.06;4996412;28;105883;-63
2021/12/20 09:22:13;;;;;;;20.60;14.43;;;;;;;2.84;100.00;97054.19;4997071;28;104316;-61
2021/12/20 09:24:41;;;;;;;17.63;12.77;;;;;;;2.77;100.00;97045.41;4994640;28;102512;-60
2021/12/20 09:27:09;;;;;;;16.60;11.70;;;;;;;2.70;100.00;97049.78;4986771;28;105674;-60
2021/12/20 09:29:38;;;;;;;21.43;13.93;;;;;;;2.68;100.00;97046.56;4989019;28;101799;-60
2021/12/20 09:32:06;;;;;;;19.57;12.70;;;;;;;2.79;100.00;97038.97;4986518;28;105192;-61
2021/12/20 09:34:34;;;;;;;17.60;11.80;;;;;;;2.65;100.00;97044.28;4987608;28;105685;-61
2021/12/20 09:37:04;;;;;;;18.27;12.23;;;;;;;2.47;100.00;97043.88;4988196;28;102095;-61
2021/12/20 09:39:32;;;;;;;15.37;11.33;;;;;;;2.41;100.00;97049.88;4992725;28;102423;-60
2021/12/20 09:42:03;;;;;;;15.43;11.07;;;;;;;2.52;100.00;97052.03;4989572;28;102203;-60
2021/12/20 09:44:31;;;;;;;20.03;12.57;;;;;;;2.55;100.00;97047.22;4987533;28;105205;-60
2021/12/20 09:47:02;;;;;;;16.63;11.20;;;;;;;2.44;100.00;97049.47;4987449;28;105227;-60
2021/12/20 09:49:30;;;;;;;16.00;11.20;;;;;;;2.47;100.00;97043.88;4993937;28;101953;-61
2021/12/20 09:51:58;;;;;;;16.83;11.20;;;;;;;2.49;100.00;97036.63;5007707;28;104044;-61
2021/12/20 09:54:27;;;;;;;17.20;11.10;;;;;;;2.47;100.00;97038.63;5007206;28;105571;-61
2021/12/20 09:56:56;;;;;;;16.17;10.53;;;;;;;2.56;100.00;97037.53;5007977;28;101898;-60
2021/12/20 09:59:26;;;;;;;15.23;11.30;;;;;;;2.68;100.00;97036.84;5007762;28;104995;-61
2021/12/20 10:01:53;;;;;;;15.70;10.80;;;;;;;2.51;100.00;97034.66;5010830;28;105311;-61
2021/12/20 10:04:23;;;;;;;14.70;10.53;;;;;;;2.63;100.00;97033.16;5009105;28;102951;-60
2021/12/20 10:06:54;;;;;;;16.13;10.93;;;;;;;2.61;100.00;97043.00;5008208;28;102988;-61
2021/12/20 10:09:26;;;;;;;15.70;10.70;;;;;;;2.70;100.00;97031.41;5007649;28;101874;-60
2021/12/20 10:12:12;;;;;;;16.97;11.10;;;;;;;2.90;100.00;97033.22;5007583;28;104830;-62
2021/12/20 10:14:53;;;;;;;15.50;11.00;;;;;;;2.99;100.00;97029.50;5006926;28;105428;-62
2021/12/20 10:17:22;;;;;;;14.97;10.57;;;;;;;3.00;100.00;97025.06;5007081;28;101927;-61
2021/12/20 10:19:51;;;;;;;15.37;10.87;;;;;;;2.98;100.00;97032.31;5007338;28;105239;-61
2021/12/20 10:22:28;;;;;;;14.57;10.23;;;;;;;2.94;100.00;97026.63;5008009;28;103019;-61
2021/12/20 10:24:57;;;;;;;13.07;9.43;;;;;;;3.05;100.00;97022.66;5010743;28;101845;-61
2021/12/20 10:27:29;;;;;;;15.37;10.50;;;;;;;2.93;100.00;97021.53;5007485;28;105393;-61
2021/12/20 10:29:56;;;;;;;15.47;10.10;;;;;;;3.08;100.00;97022.28;5007113;28;102275;-61
2021/12/20 10:32:38;;;;;;;14.53;9.73;;;;;;;3.36;100.00;97025.78;5006880;28;104934;-61
2021/12/20 10:35:32;;;;;;;14.80;10.53;;;;;;;3.31;100.00;97028.16;5004280;28;105353;-61
2021/12/20 10:38:01;;;;;;;13.70;10.53;;;;;;;3.51;100.00;97024.69;5007045;28;102110;-61
2021/12/20 10:40:29;;;;;;;12.17;9.60;;;;;;;3.49;100.00;97025.91;5007019;28;103713;-61
2021/12/20 10:42:57;;;;;;;14.13;10.67;;;;;;;3.29;100.00;97023.09;5007548;28;105842;-61
2021/12/20 10:45:27;;;;;;;14.33;10.97;;;;;;;3.38;100.00;97021.16;5007308;28;101929;-61
2021/12/20 10:47:55;;;;;;;12.90;9.97;;;;;;;3.46;100.00;97019.19;5010035;28;104091;-61
2021/12/20 10:50:42;;;;;;;17.20;10.93;;;;;;;3.52;100.00;97015.81;5006934;28;102428;-61
2021/12/20 10:53:16;;;;;;;14.63;9.77;;;;;;;3.72;100.00;97008.06;5005818;27;104895;-61
2021/12/20 10:55:46;;;;;;;14.10;10.67;;;;;;;3.64;100.00;97016.06;5007373;28;105795;-62
2021/12/20 10:58:28;;;;;;;14.27;10.63;;;;;;;3.60;100.00;97012.22;5006877;28;101849;-62
2021/12/20 11:01:21;;;;;;;15.53;11.47;;;;;;;3.66;100.00;97009.63;5008451;28;102297;-61
2021/12/20 11:04:01;;;;;;;15.03;10.13;;;;;;;3.52;100.00;97009.72;5007534;28;105261;-63
2021/12/20 11:09:22;;;;;;;15.07;9.97;;;;;;;3.59;100.00;97013.19;5015050;28;102606;-61
2021/12/20 11:11:51;;;;;;;14.70;10.70;;;;;;;3.54;100.00;97007.69;5010401;28;101830;-61
2021/12/20 11:14:20;;;;;;;14.43;9.43;;;;;;;3.57;100.00;97010.78;5010216;28;105578;-62
2021/12/20 11:16:49;;;;;;;15.73;11.30;;;;;;;3.68;100.00;97001.53;5011640;28;102641;-64
2021/12/20 11:19:25;;;;;;;15.87;10.83;;;;;;;3.59;100.00;97000.06;5011246;28;102133;-62
2021/12/20 11:22:07;;;;;;;18.40;11.07;;;;;;;3.82;100.00;97005.91;5010083;28;106554;-62
2021/12/20 11:24:40;;;;;;;14.83;10.50;;;;;;;3.87;100.00;96999.03;5009778;28;105306;-61
2021/12/20 11:27:11;;;;;;;14.20;9.63;;;;;;;3.93;100.00;97005.34;5010346;28;101760;-61
2021/12/20 11:29:41;;;;;;;15.90;10.57;;;;;;;3.85;100.00;97000.22;5010813;28;104867;-62